Time;durP1;ratioP1;P1;durP2;ratioP2;P2;SDS_P1;SDS_P2;PMS_P1;PMS_P2;Temp;Humidity;BMP_temperature;BMP_pressure;BME280_temperature;BME280_humidity;BME280_pressure;Samples;Min_cycle;Max_cycle;Signal;HPM_P1;HPM_P2
2022/11/24 00:01:28;;;;;;;12.75;2.30;;;;;;;12.38;69.39;100202.00;5050597;28;20017;-43
2022/11/24 00:04:02;;;;;;;8.60;2.25;;;;;;;12.33;69.27;100201.16;5051132;28;20025;-39
2022/11/24 00:06:30;;;;;;;15.27;2.72;;;;;;;12.35;69.44;100209.00;5050808;28;20025;-42
2022/11/24 00:08:56;;;;;;;11.45;2.40;;;;;;;12.25;69.73;100209.91;5050757;28;20028;-41
2022/11/24 00:11:30;;;;;;;15.93;2.78;;;;;;;12.34;69.47;100215.09;5049619;28;20099;-42
2022/11/24 00:13:57;;;;;;;12.90;2.78;;;;;;;12.14;70.09;100212.56;5050447;28;20436;-42
2022/11/24 00:16:25;;;;;;;14.98;2.85;;;;;;;11.91;71.04;100211.75;5050520;28;20048;-40
2022/11/24 00:18:52;;;;;;;14.52;2.95;;;;;;;12.16;70.40;100216.91;5050733;28;20025;-41
2022/11/24 00:21:19;;;;;;;17.02;3.10;;;;;;;12.32;70.12;100215.09;5032207;28;20025;-40
2022/11/24 00:23:44;;;;;;;12.23;2.55;;;;;;;12.29;70.00;100219.47;5050315;28;20035;-41
2022/11/24 00:26:28;;;;;;;16.17;2.70;;;;;;;12.40;69.37;100220.28;5050125;28;20021;-43
2022/11/24 00:28:55;;;;;;;14.15;3.00;;;;;;;12.15;70.38;100214.28;5032445;28;20021;-40
2022/11/24 00:31:24;;;;;;;13.93;2.55;;;;;;;12.28;69.76;100217.72;5032672;28;20025;-40
2022/11/24 00:33:52;;;;;;;16.95;3.05;;;;;;;11.95;71.28;100224.84;5050639;28;20032;-42
2022/11/24 00:36:18;;;;;;;17.55;3.35;;;;;;;12.12;69.82;100219.56;5050632;28;20112;-40
2022/11/24 00:38:45;;;;;;;20.10;2.97;;;;;;;12.04;70.83;100222.19;5050483;28;20033;-41
2022/11/24 00:41:11;;;;;;;16.15;2.90;;;;;;;11.99;70.71;100223.94;5050336;28;20028;-40
2022/11/24 00:43:36;;;;;;;15.85;2.80;;;;;;;11.89;70.49;100227.47;5050775;28;20086;-42
2022/11/24 00:46:02;;;;;;;11.27;2.45;;;;;;;11.94;70.83;100217.88;5050714;28;20032;-43
2022/11/24 00:48:28;;;;;;;14.00;3.00;;;;;;;11.85;70.59;100227.44;5050712;28;20028;-41
2022/11/24 00:51:03;;;;;;;17.23;2.60;;;;;;;11.94;70.19;100233.53;5050522;28;20053;-40
2022/11/24 00:53:29;;;;;;;13.30;2.55;;;;;;;11.86;70.49;100226.56;5050530;28;20059;-41
2022/11/24 00:55:55;;;;;;;13.50;2.22;;;;;;;11.80;71.09;100230.06;5034725;28;20028;-41
2022/11/24 00:58:21;;;;;;;22.13;2.40;;;;;;;12.02;69.98;100228.25;5053715;28;20396;-40
2022/11/24 01:00:47;;;;;;;12.18;2.88;;;;;;;11.85;70.17;100227.44;5052684;28;20025;-41
2022/11/24 01:03:13;;;;;;;9.98;2.13;;;;;;;12.19;69.09;100231.72;5052541;28;20036;-41
2022/11/24 01:05:39;;;;;;;12.27;2.17;;;;;;;12.01;69.55;100237.88;5050407;28;20086;-41
2022/11/24 01:08:05;;;;;;;8.02;1.95;;;;;;;12.14;68.71;100238.69;5050719;28;20128;-42
2022/11/24 01:10:31;;;;;;;11.80;1.98;;;;;;;11.97;69.13;100241.34;5050224;28;20048;-44
2022/11/24 01:12:56;;;;;;;9.00;2.10;;;;;;;12.08;68.59;100236.97;5050945;28;20068;-39
2022/11/24 01:15:21;;;;;;;10.63;2.15;;;;;;;12.10;68.47;100240.44;5051564;28;20025;-40
2022/11/24 01:17:47;;;;;;;11.55;2.13;;;;;;;11.81;69.12;100242.25;5052721;28;20035;-41
2022/11/24 01:20:12;;;;;;;13.43;2.65;;;;;;;11.92;69.22;100253.56;5051367;28;20025;-39
2022/11/24 01:22:38;;;;;;;11.45;2.10;;;;;;;12.16;68.03;100255.22;5051557;28;20059;-40
2022/11/24 01:25:07;;;;;;;9.90;2.25;;;;;;;11.82;69.23;100254.44;5054201;28;20021;-42
2022/11/24 01:27:33;;;;;;;10.90;1.80;;;;;;;11.86;69.36;100252.69;5053813;28;20104;-43
2022/11/24 01:29:58;;;;;;;10.43;2.20;;;;;;;11.77;70.13;100251.00;5053844;28;20652;-39
2022/11/24 01:32:23;;;;;;;11.30;2.10;;;;;;;11.71;69.75;100257.03;5053133;28;20024;-43
2022/11/24 01:34:49;;;;;;;11.55;2.10;;;;;;;11.76;70.19;100259.69;5053691;28;20025;-41
2022/11/24 01:37:14;;;;;;;11.40;2.15;;;;;;;11.97;69.37;100266.59;5035320;28;20020;-42
2022/11/24 01:39:40;;;;;;;12.98;2.28;;;;;;;11.90;69.56;100267.47;5053257;28;20036;-42
2022/11/24 01:42:06;;;;;;;10.25;1.90;;;;;;;11.94;69.44;100272.72;5053180;28;20045;-39
2022/11/24 01:44:31;;;;;;;9.02;2.13;;;;;;;11.87;69.77;100272.72;5053674;28;20551;-42
2022/11/24 01:47:18;;;;;;;15.02;2.42;;;;;;;11.77;70.10;100280.56;5053331;28;20025;-41
2022/11/24 01:49:48;;;;;;;9.88;1.90;;;;;;;11.92;69.37;100297.97;5035078;28;20037;-42
2022/11/24 01:52:24;;;;;;;11.98;2.53;;;;;;;11.92;69.30;100291.88;5053086;28;20031;-40
2022/11/24 01:54:53;;;;;;;10.95;2.00;;;;;;;11.81;69.97;100289.28;5053153;28;20025;-40
2022/11/24 01:57:22;;;;;;;8.85;2.10;;;;;;;11.96;68.86;100288.38;5053093;28;20489;-42
2022/11/24 01:59:51;;;;;;;9.57;1.85;;;;;;;12.05;68.87;100294.47;5052736;28;20035;-43
2022/11/24 02:02:17;;;;;;;12.40;1.95;;;;;;;12.03;68.49;100293.59;5052572;28;20472;-40
2022/11/24 02:04:44;;;;;;;14.52;2.42;;;;;;;11.74;69.38;100282.31;5052846;28;20075;-39
2022/11/24 02:07:11;;;;;;;11.77;2.10;;;;;;;11.88;69.38;100300.59;5053115;28;20021;-41
2022/11/24 02:09:47;;;;;;;9.80;2.10;;;;;;;12.05;68.65;100299.69;5052798;28;20021;-41
2022/11/24 02:12:13;;;;;;;13.43;2.40;;;;;;;11.73;69.04;100319.69;5052461;28;20033;-40
2022/11/24 02:14:40;;;;;;;10.35;2.10;;;;;;;11.86;69.05;100308.41;5053235;28;20102;-43
2022/11/24 02:17:07;;;;;;;11.50;2.33;;;;;;;11.51;69.84;100320.56;5052970;28;20032;-40
2022/11/24 02:19:38;;;;;;;9.38;2.20;;;;;;;11.82;68.97;100313.66;5053009;28;20046;-42
2022/11/24 02:22:07;;;;;;;10.05;2.00;;;;;;;11.83;68.70;100323.22;5052434;28;20033;-40
2022/11/24 02:25:06;;;;;;;10.48;2.28;;;;;;;11.74;69.15;100327.56;5052205;28;20485;-42
2022/11/24 02:27:31;;;;;;;8.85;2.17;;;;;;;11.98;68.68;100342.38;5052531;28;20151;-41
2022/11/24 02:29:57;;;;;;;11.32;2.17;;;;;;;11.87;68.61;100335.41;5052072;28;20451;-45
2022/11/24 02:32:22;;;;;;;8.68;1.73;;;;;;;12.03;67.81;100332.78;5051788;28;20085;-43
2022/11/24 02:34:48;;;;;;;10.07;1.70;;;;;;;12.20;67.08;100332.75;5051507;28;20078;-39
2022/11/24 02:37:13;;;;;;;8.95;1.83;;;;;;;11.97;67.35;100326.69;5051997;28;20482;-41
2022/11/24 02:39:38;;;;;;;8.25;1.60;;;;;;;11.96;67.48;100327.56;5052099;28;20363;-39
2022/11/24 02:42:09;;;;;;;9.73;1.90;;;;;;;12.11;66.72;100330.16;5051802;28;20123;-42
2022/11/24 02:44:42;;;;;;;5.43;1.48;;;;;;;11.74;66.50;100319.75;5052013;28;20454;-40
2022/11/24 02:47:10;;;;;;;7.65;1.35;;;;;;;12.11;65.79;100317.97;5051969;28;20037;-44
2022/11/24 02:49:36;;;;;;;6.03;1.48;;;;;;;12.09;65.37;100322.31;5051760;28;20039;-41
2022/11/24 02:52:02;;;;;;;6.30;1.40;;;;;;;12.00;65.11;100321.47;5051529;28;20021;-41
2022/11/24 02:54:27;;;;;;;5.45;1.10;;;;;;;12.28;64.20;100322.28;5051814;28;20032;-40
2022/11/24 02:56:56;;;;;;;4.72;1.13;;;;;;;11.96;64.95;100317.97;5052440;28;20385;-41
2022/11/24 02:59:22;;;;;;;4.78;1.00;;;;;;;12.06;64.56;100324.06;5033758;28;20469;-40
2022/11/24 03:01:47;;;;;;;4.57;0.90;;;;;;;11.81;64.50;100330.19;5052702;28;20031;-42
2022/11/24 03:04:13;;;;;;;4.60;0.80;;;;;;;11.97;64.62;100324.94;5053721;28;20080;-44
2022/11/24 03:06:38;;;;;;;3.80;0.80;;;;;;;12.16;63.33;100337.13;5053397;28;20508;-45
2022/11/24 03:09:04;;;;;;;4.07;0.88;;;;;;;12.34;62.40;100338.81;5053327;28;20025;-41
2022/11/24 03:11:29;;;;;;;3.55;0.70;;;;;;;12.09;63.08;100330.16;5052400;28;20037;-41
2022/11/24 03:13:55;;;;;;;2.70;0.55;;;;;;;12.15;62.51;100334.50;5052105;28;20489;-41
2022/11/24 03:16:20;;;;;;;2.65;0.60;;;;;;;12.39;62.11;100339.66;5051740;28;20025;-44
2022/11/24 03:18:48;;;;;;;2.58;0.70;;;;;;;12.26;62.46;100334.50;5051274;28;20751;-40
2022/11/24 03:21:14;;;;;;;4.82;1.00;;;;;;;12.26;62.86;100351.03;5051086;28;20059;-41
2022/11/24 03:23:39;;;;;;;4.15;0.80;;;;;;;12.13;63.84;100357.16;5051524;28;20037;-40
2022/11/24 03:26:09;;;;;;;4.75;1.13;;;;;;;12.23;63.59;100363.25;5051579;28;20033;-43
2022/11/24 03:28:34;;;;;;;4.40;0.90;;;;;;;12.44;63.00;100365.81;5033407;28;20059;-43
2022/11/24 03:31:01;;;;;;;7.72;1.15;;;;;;;12.10;63.94;100376.31;5050863;28;20017;-40
2022/11/24 03:33:26;;;;;;;5.22;1.20;;;;;;;12.15;64.31;100386.75;5051585;28;20021;-44
2022/11/24 03:35:52;;;;;;;6.03;1.20;;;;;;;12.20;64.37;100387.63;5051417;28;20027;-41
2022/11/24 03:38:17;;;;;;;4.78;1.00;;;;;;;12.43;63.84;100391.09;5050902;28;20377;-41
2022/11/24 03:40:42;;;;;;;9.23;1.40;;;;;;;12.52;64.16;100395.41;5050864;28;20032;-43
2022/11/24 03:43:08;;;;;;;7.53;1.33;;;;;;;12.21;65.57;100397.22;5051499;28;20021;-44
2022/11/24 03:45:33;;;;;;;8.27;1.48;;;;;;;12.25;65.47;100398.97;5050295;28;20104;-42
2022/11/24 03:47:58;;;;;;;7.45;1.83;;;;;;;12.31;66.36;100398.97;5051011;28;20434;-39
2022/11/24 03:50:24;;;;;;;6.38;1.65;;;;;;;12.42;65.99;100404.16;5050635;28;20530;-43
2022/11/24 03:52:49;;;;;;;6.28;1.80;;;;;;;12.35;66.29;100402.44;5050907;28;20028;-40
2022/11/24 03:55:14;;;;;;;9.65;2.08;;;;;;;12.44;66.26;100407.66;5051014;28;20028;-41
2022/11/24 03:57:40;;;;;;;11.07;2.40;;;;;;;12.15;67.32;100407.66;5050742;28;20041;-43
2022/11/24 04:00:06;;;;;;;8.88;2.20;;;;;;;11.79;68.96;100419.84;5051155;28;20095;-41
2022/11/24 04:02:31;;;;;;;13.70;2.30;;;;;;;11.92;68.78;100422.47;5051080;28;20057;-41
2022/11/24 04:04:58;;;;;;;5.95;1.80;;;;;;;12.32;67.15;100431.19;5051320;28;20063;-40
2022/11/24 04:07:23;;;;;;;9.07;2.22;;;;;;;12.03;68.27;100437.28;5051274;28;20104;-40
2022/11/24 04:09:49;;;;;;;8.65;2.20;;;;;;;11.79;69.87;100450.31;5051293;28;20561;-43
2022/11/24 04:14:58;;;;;;;9.85;2.00;;;;;;;11.88;70.23;100447.72;5052152;28;20040;-40
2022/11/24 04:17:23;;;;;;;5.55;1.63;;;;;;;11.84;70.55;100465.97;5051599;28;20029;-41
2022/11/24 04:19:48;;;;;;;8.10;1.60;;;;;;;11.56;70.96;100471.13;5050742;28;20108;-41
2022/11/24 04:22:14;;;;;;;3.88;0.80;;;;;;;10.94;71.33;100470.84;5050222;28;20082;-40
2022/11/24 04:24:39;;;;;;;4.85;0.88;;;;;;;10.95;70.06;100470.88;5050612;28;20029;-47
2022/11/24 04:27:04;;;;;;;2.58;0.70;;;;;;;11.20;69.60;100474.47;5050248;28;20025;-40
2022/11/24 04:29:30;;;;;;;3.20;0.65;;;;;;;11.03;69.96;100483.97;5050136;28;20477;-41
2022/11/24 04:31:55;;;;;;;2.85;0.45;;;;;;;11.24;68.75;100481.44;5049784;28;20119;-43
2022/11/24 04:34:20;;;;;;;2.25;0.60;;;;;;;11.24;69.19;100481.44;5050060;28;20556;-42
2022/11/24 04:36:46;;;;;;;3.83;0.52;;;;;;;10.94;70.10;100478.69;5049832;28;20013;-40
2022/11/24 04:39:11;;;;;;;3.20;0.55;;;;;;;10.89;71.22;100483.88;5050020;28;20057;-43
2022/11/24 04:41:36;;;;;;;1.95;0.50;;;;;;;10.87;71.10;100485.59;5049743;28;20036;-39
2022/11/24 04:44:01;;;;;;;3.22;0.50;;;;;;;10.82;71.24;100487.31;5049919;28;20174;-40
2022/11/24 04:46:27;;;;;;;4.82;0.70;;;;;;;10.75;71.16;100495.06;5050796;28;20489;-41
2022/11/24 04:48:52;;;;;;;2.10;0.50;;;;;;;10.76;71.22;100494.22;5051273;28;20056;-47
2022/11/24 04:51:17;;;;;;;3.47;0.45;;;;;;;10.96;70.71;100498.72;5050739;28;20096;-39
2022/11/24 04:53:43;;;;;;;1.65;0.50;;;;;;;10.98;70.79;100502.19;5050953;28;20033;-39
2022/11/24 04:56:08;;;;;;;2.33;0.43;;;;;;;11.14;70.02;100500.53;5051084;28;20036;-40
2022/11/24 04:58:34;;;;;;;2.67;0.63;;;;;;;11.26;69.56;100504.94;5051022;28;20063;-42
2022/11/24 05:00:59;;;;;;;2.83;0.50;;;;;;;11.12;69.68;100510.09;5050606;28;20036;-41
2022/11/24 05:03:25;;;;;;;4.88;0.50;;;;;;;11.06;70.23;100517.00;5050479;28;20028;-43
2022/11/24 05:05:50;;;;;;;5.72;0.63;;;;;;;11.23;69.60;100515.34;5050217;28;20017;-45
2022/11/24 05:08:15;;;;;;;2.97;0.70;;;;;;;11.32;69.06;100531.06;5049766;28;20453;-48
2022/11/24 05:10:41;;;;;;;4.13;0.60;;;;;;;11.13;70.19;100529.22;5049565;28;20648;-40
2022/11/24 05:13:10;;;;;;;2.97;0.57;;;;;;;10.90;70.08;100544.75;5032113;28;20127;-41
2022/11/24 05:15:37;;;;;;;3.03;0.60;;;;;;;10.94;70.88;100538.66;5049972;28;20021;-39
2022/11/24 05:18:04;;;;;;;1.75;0.40;;;;;;;11.22;69.74;100542.34;5050308;28;20112;-42
2022/11/24 05:20:30;;;;;;;2.45;0.77;;;;;;;11.36;69.34;100541.53;5049559;28;20039;-39
2022/11/24 05:22:59;;;;;;;4.38;0.50;;;;;;;11.30;68.99;100543.22;5049827;28;20025;-39
2022/11/24 05:25:24;;;;;;;3.53;0.50;;;;;;;11.02;70.05;100552.66;5049712;28;20089;-42
2022/11/24 05:27:50;;;;;;;3.92;0.45;;;;;;;11.24;69.66;100570.16;5050383;28;20029;-39
2022/11/24 05:30:15;;;;;;;4.03;0.40;;;;;;;11.07;70.65;100573.53;5054218;28;20147;-42
2022/11/24 05:32:40;;;;;;;2.10;0.35;;;;;;;11.06;70.34;100572.66;5053933;28;20029;-39
2022/11/24 05:35:08;;;;;;;4.07;0.70;;;;;;;11.16;70.75;100571.00;5053835;28;20024;-40
2022/11/24 05:37:33;;;;;;;3.67;0.57;;;;;;;11.06;70.77;100574.41;5050211;28;20036;-42
2022/11/24 05:39:59;;;;;;;1.48;0.45;;;;;;;11.38;69.88;100578.06;5049647;28;20048;-41
2022/11/24 05:42:39;;;;;;;4.28;0.70;;;;;;;11.37;69.62;100581.53;5049324;28;20060;-42
2022/11/24 05:45:08;;;;;;;5.43;1.10;;;;;;;11.12;70.45;100584.88;5049013;28;20028;-41
2022/11/24 05:47:33;;;;;;;4.43;1.30;;;;;;;11.04;70.95;100594.41;5049130;28;20029;-40
2022/11/24 05:49:58;;;;;;;3.58;1.42;;;;;;;11.30;70.62;100596.28;5049238;28;20621;-41
2022/11/24 05:52:24;;;;;;;3.28;1.70;;;;;;;11.14;71.32;100601.41;5048903;28;20477;-46
2022/11/24 05:54:49;;;;;;;4.00;1.52;;;;;;;11.38;70.38;100602.44;5049324;28;20106;-43
2022/11/24 05:57:17;;;;;;;4.80;1.50;;;;;;;11.52;70.01;100606.88;5049423;28;20033;-42
2022/11/24 05:59:43;;;;;;;7.32;2.05;;;;;;;11.24;70.96;100616.25;5031237;28;20044;-40
2022/11/24 06:02:09;;;;;;;4.38;1.80;;;;;;;11.35;71.35;100620.69;5048856;28;20420;-41
2022/11/24 06:04:35;;;;;;;5.45;2.20;;;;;;;11.26;71.45;100620.63;5049166;28;20465;-37
2022/11/24 06:07:01;;;;;;;6.53;2.05;;;;;;;11.35;71.66;100631.13;5048997;28;20029;-43
2022/11/24 06:09:26;;;;;;;5.72;2.20;;;;;;;11.66;70.51;100626.94;5050659;28;20021;-40
2022/11/24 06:11:52;;;;;;;5.68;2.10;;;;;;;11.72;70.20;100626.97;5052554;28;20455;-40
2022/11/24 06:14:17;;;;;;;8.05;2.10;;;;;;;11.49;70.40;100636.44;5053069;28;20373;-44
2022/11/24 06:16:42;;;;;;;5.15;2.30;;;;;;;11.54;71.11;100641.66;5052813;28;20428;-40
2022/11/24 06:19:09;;;;;;;10.15;2.80;;;;;;;11.56;70.54;100651.28;5052591;28;20028;-41
2022/11/24 06:21:35;;;;;;;8.98;2.80;;;;;;;11.35;71.16;100658.94;5034371;28;20028;-41
2022/11/24 06:24:01;;;;;;;6.57;2.80;;;;;;;11.71;70.43;100656.56;5034733;28;20029;-39
2022/11/24 06:26:27;;;;;;;7.20;3.00;;;;;;;11.80;70.17;100663.63;5052113;28;20363;-39
2022/11/24 06:28:52;;;;;;;8.07;3.17;;;;;;;11.51;71.07;100670.38;5034911;28;20055;-44
2022/11/24 06:31:17;;;;;;;7.70;3.42;;;;;;;11.63;71.16;100675.69;5052161;28;20047;-41
2022/11/24 06:33:43;;;;;;;7.28;2.90;;;;;;;11.66;70.88;100678.28;5052570;28;20060;-41
2022/11/24 06:36:12;;;;;;;8.95;3.45;;;;;;;11.87;70.14;100675.84;5052409;28;20071;-42
2022/11/24 06:38:37;;;;;;;6.57;3.10;;;;;;;11.83;70.07;100676.72;5052619;28;20269;-41
2022/11/24 06:41:05;;;;;;;7.18;3.30;;;;;;;11.86;70.34;100681.94;5052085;28;20041;-42
2022/11/24 06:43:31;;;;;;;8.55;3.10;;;;;;;11.85;70.20;100684.53;5034698;28;20616;-41
2022/11/24 06:45:57;;;;;;;7.60;3.10;;;;;;;11.91;70.02;100687.16;5052323;28;20111;-47
2022/11/24 06:48:23;;;;;;;5.82;3.08;;;;;;;11.88;70.15;100695.88;5052429;28;20025;-38
2022/11/24 06:50:49;;;;;;;7.75;3.28;;;;;;;11.83;70.63;100702.84;5052382;28;20043;-41
2022/11/24 06:53:15;;;;;;;7.03;3.58;;;;;;;11.81;70.07;100701.06;5051938;28;20032;-40
2022/11/24 06:55:41;;;;;;;9.18;3.17;;;;;;;11.83;70.32;100704.56;5051996;28;20021;-40
2022/11/24 06:58:06;;;;;;;7.90;3.30;;;;;;;11.84;70.36;100712.38;5052347;28;20065;-44
2022/11/24 07:00:31;;;;;;;7.75;3.20;;;;;;;11.84;70.31;100724.56;5052522;28;20110;-42
2022/11/24 07:02:58;;;;;;;7.25;3.15;;;;;;;11.89;70.29;100728.09;5052389;28;20029;-39
2022/11/24 07:05:23;;;;;;;7.43;3.25;;;;;;;11.92;70.27;100726.38;5052592;28;20122;-39
2022/11/24 07:07:48;;;;;;;8.73;3.70;;;;;;;11.85;70.74;100728.94;5052413;28;20029;-40
2022/11/24 07:10:14;;;;;;;10.95;3.72;;;;;;;11.89;70.08;100728.97;5052731;28;20024;-40
2022/11/24 07:12:39;;;;;;;7.57;3.95;;;;;;;11.72;70.84;100731.44;5053019;28;20051;-41
2022/11/24 07:15:05;;;;;;;9.20;4.00;;;;;;;11.81;70.55;100737.63;5053850;28;20457;-43
2022/11/24 07:17:34;;;;;;;8.80;3.80;;;;;;;11.78;70.45;100741.06;5053529;28;20519;-41
2022/11/24 07:20:00;;;;;;;9.10;3.95;;;;;;;11.82;70.21;100749.81;5051276;28;20025;-41
2022/11/24 07:22:25;;;;;;;10.18;3.63;;;;;;;11.71;70.48;100750.56;5051149;28;20481;-40
2022/11/24 07:24:50;;;;;;;8.75;4.25;;;;;;;11.54;71.55;100767.00;5051441;28;20025;-39
2022/11/24 07:27:15;;;;;;;12.20;4.03;;;;;;;11.62;71.20;100770.53;5051667;28;20536;-40
2022/11/24 07:29:41;;;;;;;11.63;4.20;;;;;;;11.68;71.94;100774.06;5051219;28;20079;-39
2022/11/24 07:32:06;;;;;;;13.25;3.70;;;;;;;11.54;72.83;100772.22;5051209;28;20017;-41
2022/11/24 07:34:31;;;;;;;13.43;3.58;;;;;;;11.60;72.41;100773.13;5051687;28;20457;-47
2022/11/24 07:36:57;;;;;;;9.98;3.50;;;;;;;11.67;72.44;100772.31;5051984;28;20016;-40
2022/11/24 07:39:22;;;;;;;7.80;3.10;;;;;;;11.73;71.96;100776.72;5051942;28;20452;-44
2022/11/24 07:41:47;;;;;;;10.27;3.10;;;;;;;11.81;71.25;100784.63;5051543;28;20056;-39
2022/11/24 07:44:12;;;;;;;9.00;3.00;;;;;;;11.73;70.83;100790.69;5051079;28;20032;-42
2022/11/24 07:46:38;;;;;;;11.57;3.00;;;;;;;11.72;71.09;100791.50;5051128;28;20107;-43
2022/11/24 07:49:03;;;;;;;10.00;2.83;;;;;;;11.76;70.54;100798.56;5051169;28;20035;-43
2022/11/24 07:51:28;;;;;;;10.18;3.05;;;;;;;11.65;70.89;100807.97;5051076;28;20024;-45
2022/11/24 07:53:54;;;;;;;9.50;2.70;;;;;;;11.67;70.72;100803.66;5050542;28;20363;-40
2022/11/24 07:56:19;;;;;;;13.35;2.92;;;;;;;11.55;72.02;100807.91;5050701;28;20104;-39
2022/11/24 07:58:44;;;;;;;14.95;2.80;;;;;;;11.70;71.35;100811.53;5050923;28;20477;-40
2022/11/24 08:01:12;;;;;;;14.00;2.85;;;;;;;11.63;71.80;100809.72;5050685;28;20044;-39
2022/11/24 08:03:37;;;;;;;9.57;2.90;;;;;;;11.77;71.25;100820.31;5050557;28;20052;-42
2022/11/24 08:06:02;;;;;;;10.63;2.65;;;;;;;11.64;71.65;100823.66;5050614;28;20492;-39
2022/11/24 08:08:32;;;;;;;11.27;2.65;;;;;;;11.64;72.13;100824.53;5050249;28;20036;-39
2022/11/24 08:10:57;;;;;;;18.17;2.80;;;;;;;11.66;71.81;100833.25;5050320;28;20468;-41
2022/11/24 08:13:23;;;;;;;10.27;2.30;;;;;;;11.61;72.14;100834.06;5050149;28;20025;-39
2022/11/24 08:15:48;;;;;;;11.13;2.58;;;;;;;11.70;71.75;100837.66;5050290;28;20025;-39
2022/11/24 08:18:13;;;;;;;9.10;2.05;;;;;;;11.63;72.59;100850.63;5050433;28;20075;-40
2022/11/24 08:20:39;;;;;;;13.73;2.70;;;;;;;11.59;72.67;100849.72;5050477;28;20028;-41
2022/11/24 08:23:04;;;;;;;11.93;2.78;;;;;;;11.67;72.62;100852.41;5047913;28;20037;-42
2022/11/24 08:25:31;;;;;;;14.05;2.42;;;;;;;11.90;72.17;100856.09;5051360;28;20024;-41
2022/11/24 08:28:01;;;;;;;11.25;2.30;;;;;;;11.97;71.42;100857.03;5051078;28;20162;-43
2022/11/24 08:30:26;;;;;;;14.45;2.20;;;;;;;11.97;71.99;100859.63;5050222;28;20058;-40
2022/11/24 08:32:52;;;;;;;10.25;2.35;;;;;;;12.20;71.33;100853.69;5050241;28;20031;-39
2022/11/24 08:35:17;;;;;;;9.23;1.83;;;;;;;12.24;71.26;100858.97;5050271;28;20071;-43
2022/11/24 08:37:43;;;;;;;12.70;2.67;;;;;;;12.18;70.91;100863.28;5050086;28;20025;-47
2022/11/24 08:40:09;;;;;;;16.13;2.65;;;;;;;11.95;71.22;100867.47;5049982;28;20036;-39
2022/11/24 08:42:34;;;;;;;10.23;2.05;;;;;;;12.19;70.74;100872.00;5050272;28;20049;-41
2022/11/24 08:45:00;;;;;;;15.27;2.60;;;;;;;12.21;70.88;100872.88;5050102;28;20535;-42
2022/11/24 08:47:25;;;;;;;13.13;2.40;;;;;;;12.13;70.66;100869.34;5050524;28;20075;-39
2022/11/24 08:49:50;;;;;;;10.52;2.33;;;;;;;12.37;70.74;100881.72;5050250;28;20525;-40
2022/11/24 08:52:15;;;;;;;10.98;2.10;;;;;;;12.34;70.78;100881.66;5049701;28;20025;-45
2022/11/24 08:54:43;;;;;;;10.82;1.95;;;;;;;12.33;70.83;100896.47;5050271;28;20020;-39
2022/11/24 08:57:09;;;;;;;14.60;2.40;;;;;;;12.48;70.05;100890.47;5072455;22;20063;-43
2022/11/24 08:59:34;;;;;;;9.27;1.92;;;;;;;12.47;69.99;100892.22;5049661;28;20048;-44
2022/11/24 09:01:59;;;;;;;14.63;2.13;;;;;;;12.56;70.44;100897.47;5049106;28;20040;-41
2022/11/24 09:04:25;;;;;;;14.15;2.30;;;;;;;12.43;71.56;100903.53;5049442;28;20051;-41
2022/11/24 09:06:50;;;;;;;13.25;2.63;;;;;;;12.70;71.29;100904.53;5049664;28;20021;-40
2022/11/24 09:09:15;;;;;;;11.10;2.20;;;;;;;12.81;70.16;100910.69;5049796;28;20044;-41
2022/11/24 09:11:40;;;;;;;14.23;2.28;;;;;;;13.03;69.80;100917.78;5049062;28;20029;-42
2022/11/24 09:14:06;;;;;;;14.02;2.30;;;;;;;13.03;69.07;100907.31;5049931;28;20017;-43
2022/11/24 09:16:31;;;;;;;12.73;2.45;;;;;;;12.70;69.55;100917.63;5049336;28;20494;-41
2022/11/24 09:18:59;;;;;;;12.82;2.20;;;;;;;12.86;69.38;100924.69;5049507;28;20028;-45
2022/11/24 09:21:25;;;;;;;14.23;2.30;;;;;;;12.91;69.32;100918.63;5049529;28;20025;-45
2022/11/24 09:23:52;;;;;;;10.15;2.17;;;;;;;12.93;69.37;100923.84;5049302;28;20029;-45
2022/11/24 09:26:24;;;;;;;15.20;2.65;;;;;;;12.91;69.29;100929.09;5049904;28;20025;-43
2022/11/24 09:28:53;;;;;;;11.27;2.33;;;;;;;12.80;70.14;100941.25;5049762;28;20787;-41
2022/11/24 09:31:19;;;;;;;9.38;1.90;;;;;;;12.96;70.38;100943.06;5050241;28;20024;-43
2022/11/24 09:33:45;;;;;;;12.43;2.28;;;;;;;12.82;70.87;100951.69;5052632;28;20111;-42
2022/11/24 09:36:11;;;;;;;12.65;2.13;;;;;;;13.06;70.05;100950.94;5056068;28;20067;-43
2022/11/24 09:38:37;;;;;;;15.15;1.88;;;;;;;13.08;69.18;100952.69;5053274;28;20075;-43
2022/11/24 09:41:31;;;;;;;11.80;2.33;;;;;;;13.09;69.51;100958.81;5049571;28;20025;-44
2022/11/24 09:44:19;;;;;;;15.63;2.40;;;;;;;13.23;68.91;100965.03;5050113;28;20118;-44
2022/11/24 09:47:05;;;;;;;8.43;1.70;;;;;;;13.10;69.08;100968.44;5052949;28;20021;-47
2022/11/24 09:49:42;;;;;;;10.75;2.00;;;;;;;13.17;68.78;100989.44;5053209;28;20037;-45
2022/11/24 09:52:10;;;;;;;12.82;1.95;;;;;;;12.96;69.10;100991.91;5052563;28;20293;-41
2022/11/24 09:54:44;;;;;;;8.75;1.88;;;;;;;12.94;68.75;100989.28;5053116;28;20025;-42
2022/11/24 09:57:11;;;;;;;9.20;1.85;;;;;;;13.10;68.23;100989.38;5052842;28;20017;-44
2022/11/24 09:59:39;;;;;;;16.58;2.40;;;;;;;12.57;69.96;100992.50;5052646;28;20027;-40
2022/11/24 10:02:10;;;;;;;14.40;2.10;;;;;;;12.86;69.00;100997.97;5052141;28;20371;-40
2022/11/24 10:04:41;;;;;;;12.60;2.03;;;;;;;12.95;68.84;100998.88;5052661;28;20055;-43
2022/11/24 10:07:27;;;;;;;13.32;2.15;;;;;;;13.13;67.98;100995.50;5052694;28;20390;-41
2022/11/24 10:09:52;;;;;;;9.73;2.05;;;;;;;13.12;68.23;101000.69;5053147;28;20036;-41
2022/11/24 10:12:48;;;;;;;12.45;2.40;;;;;;;13.06;68.14;101005.91;5052207;28;20025;-42
2022/11/24 10:15:45;;;;;;;14.13;2.42;;;;;;;12.95;68.09;101009.34;5053176;28;20014;-40
2022/11/24 10:18:48;;;;;;;11.85;2.00;;;;;;;13.30;67.46;101014.78;5015368;28;20496;-41
2022/11/24 10:21:44;;;;;;;10.10;2.15;;;;;;;13.19;67.09;101005.13;5053981;28;20021;-42
2022/11/24 10:24:28;;;;;;;16.50;2.60;;;;;;;13.01;67.69;101012.00;5052283;28;20036;-42
2022/11/24 10:27:02;;;;;;;12.45;2.20;;;;;;;13.27;67.29;101012.16;5034000;28;20021;-45
2022/11/24 10:29:40;;;;;;;15.32;2.42;;;;;;;13.23;67.11;101013.03;5052145;28;20039;-43
2022/11/24 10:32:36;;;;;;;16.02;2.33;;;;;;;13.05;67.00;101012.03;5051892;28;20021;-43
2022/11/24 10:35:21;;;;;;;;;;;;;;;13.17;66.63;101010.38;5050115;28;20064;-41
2022/11/24 10:38:09;;;;;;;12.32;2.33;;;;;;;12.69;68.28;101010.91;5051904;28;20277;-43
2022/11/24 10:40:40;;;;;;;12.95;2.35;;;;;;;12.97;67.42;101020.69;5002586;28;20033;-43
2022/11/24 10:43:09;;;;;;;13.02;2.58;;;;;;;12.99;67.49;101026.81;5051809;28;20070;-42
2022/11/24 10:45:36;;;;;;;11.82;2.30;;;;;;;13.02;67.29;101029.44;5051931;28;20013;-42
2022/11/24 10:48:06;;;;;;;16.20;2.47;;;;;;;13.07;66.88;101029.47;5051878;28;20373;-42
2022/11/24 10:50:34;;;;;;;15.85;2.38;;;;;;;13.14;66.78;101023.44;5051703;28;20154;-41
2022/11/24 10:53:18;;;;;;;15.00;2.60;;;;;;;12.84;67.72;101020.59;5052067;28;20070;-43
2022/11/24 10:55:55;;;;;;;16.05;2.50;;;;;;;13.11;66.87;101026.03;5051365;28;20017;-42
2022/11/24 10:58:27;;;;;;;10.85;2.60;;;;;;;13.01;67.16;101013.72;5051386;28;20048;-44
2022/11/24 11:00:53;;;;;;;11.13;2.65;;;;;;;13.24;66.25;101016.50;5051353;28;20547;-43
2022/11/24 11:03:30;;;;;;;11.95;2.55;;;;;;;13.38;65.79;101013.09;5051467;28;20024;-44
2022/11/24 11:06:02;;;;;;;13.95;2.80;;;;;;;13.34;65.83;101027.03;5051593;28;20025;-42
2022/11/24 11:08:29;;;;;;;18.35;3.08;;;;;;;13.49;65.59;101013.13;5051136;28;20110;-45
2022/11/24 11:11:12;;;;;;;13.98;3.08;;;;;;;13.51;65.76;101021.88;5051120;28;20020;-42
2022/11/24 11:13:50;;;;;;;14.27;2.90;;;;;;;13.57;65.44;101018.38;5051477;28;20116;-44
2022/11/24 11:16:36;;;;;;;15.77;3.00;;;;;;;13.52;65.59;101020.13;5051668;28;20043;-45
2022/11/24 11:19:36;;;;;;;15.10;3.17;;;;;;;13.47;65.41;101027.09;5051163;28;20120;-43
2022/11/24 11:22:10;;;;;;;14.65;3.00;;;;;;;13.61;65.43;101023.63;5051572;28;20463;-46
2022/11/24 11:24:38;;;;;;;14.23;3.00;;;;;;;13.65;65.06;101028.03;5053235;28;20039;-43
2022/11/24 11:27:16;;;;;;;13.15;2.60;;;;;;;13.73;65.07;101012.31;5055476;28;20024;-38
2022/11/24 11:29:42;;;;;;;13.20;3.00;;;;;;;13.76;64.88;101017.59;5054612;28;20029;-41